sensor_id;sensor_type;location;lat;lon;timestamp;temperature;humidity
48604;DHT22;32708;51.212;6.788;2023-05-02T00:00:50;12.90;99.90
48604;DHT22;32708;51.212;6.788;2023-05-02T00:03:16;12.90;99.90
48604;DHT22;32708;51.212;6.788;2023-05-02T00:05:43;12.80;99.90
48604;DHT22;32708;51.212;6.788;2023-05-02T00:08:10;12.80;99.90
48604;DHT22;32708;51.212;6.788;2023-05-02T00:10:37;12.70;99.90
48604;DHT22;32708;51.212;6.788;2023-05-02T00:13:03;13.00;99.90
48604;DHT22;32708;51.212;6.788;2023-05-02T00:15:29;12.60;99.90
48604;DHT22;32708;51.212;6.788;2023-05-02T00:17:55;12.60;99.90
48604;DHT22;32708;51.212;6.788;2023-05-02T00:20:22;12.60;99.90
48604;DHT22;32708;51.212;6.788;2023-05-02T00:22:48;12.50;99.90
48604;DHT22;32708;51.212;6.788;2023-05-02T00:25:14;12.40;99.90
48604;DHT22;32708;51.212;6.788;2023-05-02T00:27:44;12.40;99.90
48604;DHT22;32708;51.212;6.788;2023-05-02T00:30:11;12.30;99.90
48604;DHT22;32708;51.212;6.788;2023-05-02T00:32:38;12.20;99.90
48604;DHT22;32708;51.212;6.788;2023-05-02T00:35:06;12.20;99.90
48604;DHT22;32708;51.212;6.788;2023-05-02T00:37:33;12.20;99.90
48604;DHT22;32708;51.212;6.788;2023-05-02T00:39:59;12.10;99.90
48604;DHT22;32708;51.212;6.788;2023-05-02T00:42:25;12.10;99.90
48604;DHT22;32708;51.212;6.788;2023-05-02T00:44:54;11.90;99.90
48604;DHT22;32708;51.212;6.788;2023-05-02T00:47:20;11.90;99.90
48604;DHT22;32708;51.212;6.788;2023-05-02T00:49:46;11.90;99.90
48604;DHT22;32708;51.212;6.788;2023-05-02T00:52:14;11.80;99.90
48604;DHT22;32708;51.212;6.788;2023-05-02T00:54:41;11.90;99.90
48604;DHT22;32708;51.212;6.788;2023-05-02T00:57:08;11.90;99.90
48604;DHT22;32708;51.212;6.788;2023-05-02T00:59:35;11.90;99.90
48604;DHT22;32708;51.212;6.788;2023-05-02T01:05:20;11.90;99.90
48604;DHT22;32708;51.212;6.788;2023-05-02T01:08:19;11.90;99.90
48604;DHT22;32708;51.212;6.788;2023-05-02T01:11:14;12.00;99.90
48604;DHT22;32708;51.212;6.788;2023-05-02T01:13:46;12.30;99.90
48604;DHT22;32708;51.212;6.788;2023-05-02T01:16:16;12.00;99.90
48604;DHT22;32708;51.212;6.788;2023-05-02T01:18:47;11.70;99.90
48604;DHT22;32708;51.212;6.788;2023-05-02T01:21:15;11.70;99.90
48604;DHT22;32708;51.212;6.788;2023-05-02T01:24:09;11.80;99.90
48604;DHT22;32708;51.212;6.788;2023-05-02T01:27:20;11.80;99.90
48604;DHT22;32708;51.212;6.788;2023-05-02T01:29:57;11.80;99.90
48604;DHT22;32708;51.212;6.788;2023-05-02T01:32:28;11.70;99.90
48604;DHT22;32708;51.212;6.788;2023-05-02T01:34:57;11.70;99.90
48604;DHT22;32708;51.212;6.788;2023-05-02T01:37:29;11.50;99.90
48604;DHT22;32708;51.212;6.788;2023-05-02T01:39:58;11.60;99.90
48604;DHT22;32708;51.212;6.788;2023-05-02T01:42:31;11.60;99.90
48604;DHT22;32708;51.212;6.788;2023-05-02T01:45:03;11.60;99.90
48604;DHT22;32708;51.212;6.788;2023-05-02T01:47:34;11.50;99.90
48604;DHT22;32708;51.212;6.788;2023-05-02T01:50:06;11.50;99.90
48604;DHT22;32708;51.212;6.788;2023-05-02T01:52:37;11.60;99.90
48604;DHT22;32708;51.212;6.788;2023-05-02T01:55:06;11.60;99.90
48604;DHT22;32708;51.212;6.788;2023-05-02T01:57:40;11.60;99.90
48604;DHT22;32708;51.212;6.788;2023-05-02T02:00:10;11.80;99.90
48604;DHT22;32708;51.212;6.788;2023-05-02T02:02:43;11.80;99.90
48604;DHT22;32708;51.212;6.788;2023-05-02T02:05:13;11.90;99.90
48604;DHT22;32708;51.212;6.788;2023-05-02T02:07:43;11.80;99.90
48604;DHT22;32708;51.212;6.788;2023-05-02T02:10:09;11.90;99.90
48604;DHT22;32708;51.212;6.788;2023-05-02T02:12:42;11.90;99.90
48604;DHT22;32708;51.212;6.788;2023-05-02T02:15:17;11.90;99.90
48604;DHT22;32708;51.212;6.788;2023-05-02T02:18:00;12.40;99.90
48604;DHT22;32708;51.212;6.788;2023-05-02T02:20:31;12.20;99.90
48604;DHT22;32708;51.212;6.788;2023-05-02T02:23:04;12.40;99.90
48604;DHT22;32708;51.212;6.788;2023-05-02T02:25:34;12.10;99.90
48604;DHT22;32708;51.212;6.788;2023-05-02T02:28:01;12.20;99.90
48604;DHT22;32708;51.212;6.788;2023-05-02T02:30:27;12.10;99.90
48604;DHT22;32708;51.212;6.788;2023-05-02T02:32:54;12.10;99.90
48604;DHT22;32708;51.212;6.788;2023-05-02T02:35:20;12.20;99.90
48604;DHT22;32708;51.212;6.788;2023-05-02T02:41:00;12.20;99.90
48604;DHT22;32708;51.212;6.788;2023-05-02T02:44:13;12.10;99.90
48604;DHT22;32708;51.212;6.788;2023-05-02T02:47:11;12.10;99.90
48604;DHT22;32708;51.212;6.788;2023-05-02T02:53:03;12.20;99.90
48604;DHT22;32708;51.212;6.788;2023-05-02T03:01:29;12.10;99.90
48604;DHT22;32708;51.212;6.788;2023-05-02T03:03:57;12.00;99.90
48604;DHT22;32708;51.212;6.788;2023-05-02T03:06:25;12.10;99.90
48604;DHT22;32708;51.212;6.788;2023-05-02T03:08:53;12.20;99.90
48604;DHT22;32708;51.212;6.788;2023-05-02T03:11:26;12.30;99.90
48604;DHT22;32708;51.212;6.788;2023-05-02T03:13:52;12.20;99.90
48604;DHT22;32708;51.212;6.788;2023-05-02T03:16:36;12.40;99.90
48604;DHT22;32708;51.212;6.788;2023-05-02T03:19:07;12.40;99.90
48604;DHT22;32708;51.212;6.788;2023-05-02T03:21:34;12.40;99.90
48604;DHT22;32708;51.212;6.788;2023-05-02T03:24:07;12.30;99.90
48604;DHT22;32708;51.212;6.788;2023-05-02T03:26:33;12.40;99.90
48604;DHT22;32708;51.212;6.788;2023-05-02T03:29:00;12.30;99.90
48604;DHT22;32708;51.212;6.788;2023-05-02T03:31:32;12.30;99.90
48604;DHT22;32708;51.212;6.788;2023-05-02T03:33:58;12.40;99.90
48604;DHT22;32708;51.212;6.788;2023-05-02T03:36:26;12.30;99.90
48604;DHT22;32708;51.212;6.788;2023-05-02T03:38:53;12.40;99.90
48604;DHT22;32708;51.212;6.788;2023-05-02T03:41:20;12.40;99.90
48604;DHT22;32708;51.212;6.788;2023-05-02T03:43:53;12.60;99.90
48604;DHT22;32708;51.212;6.788;2023-05-02T03:46:22;12.50;99.90
48604;DHT22;32708;51.212;6.788;2023-05-02T03:48:48;12.60;99.90
48604;DHT22;32708;51.212;6.788;2023-05-02T03:51:17;12.40;99.90
48604;DHT22;32708;51.212;6.788;2023-05-02T03:53:47;12.40;99.90
48604;DHT22;32708;51.212;6.788;2023-05-02T03:56:18;12.50;99.90
48604;DHT22;32708;51.212;6.788;2023-05-02T03:58:50;12.60;99.90
48604;DHT22;32708;51.212;6.788;2023-05-02T04:01:20;12.60;99.90
48604;DHT22;32708;51.212;6.788;2023-05-02T04:03:51;12.60;99.90
48604;DHT22;32708;51.212;6.788;2023-05-02T04:06:20;12.50;99.90
48604;DHT22;32708;51.212;6.788;2023-05-02T04:08:52;12.40;99.90
48604;DHT22;32708;51.212;6.788;2023-05-02T04:11:19;12.40;99.90
48604;DHT22;32708;51.212;6.788;2023-05-02T04:13:46;12.40;99.90
48604;DHT22;32708;51.212;6.788;2023-05-02T04:16:12;12.40;99.90
48604;DHT22;32708;51.212;6.788;2023-05-02T04:18:39;12.30;99.90
48604;DHT22;32708;51.212;6.788;2023-05-02T04:21:09;12.60;99.90
48604;DHT22;32708;51.212;6.788;2023-05-02T04:23:37;12.40;99.90
48604;DHT22;32708;51.212;6.788;2023-05-02T04:26:04;12.50;99.90
48604;DHT22;32708;51.212;6.788;2023-05-02T04:28:36;12.40;99.90
48604;DHT22;32708;51.212;6.788;2023-05-02T04:31:04;12.50;99.90
48604;DHT22;32708;51.212;6.788;2023-05-02T04:33:31;12.50;99.90
48604;DHT22;32708;51.212;6.788;2023-05-02T04:35:58;12.50;99.90
48604;DHT22;32708;51.212;6.788;2023-05-02T04:38:24;12.50;99.90
48604;DHT22;32708;51.212;6.788;2023-05-02T04:40:51;12.50;99.90
48604;DHT22;32708;51.212;6.788;2023-05-02T04:43:22;12.50;99.90
48604;DHT22;32708;51.212;6.788;2023-05-02T04:45:54;12.60;99.90
48604;DHT22;32708;51.212;6.788;2023-05-02T04:48:27;12.40;99.90
48604;DHT22;32708;51.212;6.788;2023-05-02T04:50:53;12.40;99.90
48604;DHT22;32708;51.212;6.788;2023-05-02T04:53:21;12.40;99.90
48604;DHT22;32708;51.212;6.788;2023-05-02T04:55:48;12.40;99.90
48604;DHT22;32708;51.212;6.788;2023-05-02T04:58:15;12.30;99.90
48604;DHT22;32708;51.212;6.788;2023-05-02T05:00:44;12.30;99.90
48604;DHT22;32708;51.212;6.788;2023-05-02T05:03:10;12.40;99.90
48604;DHT22;32708;51.212;6.788;2023-05-02T05:05:36;12.40;99.90
48604;DHT22;32708;51.212;6.788;2023-05-02T05:08:05;12.40;99.90
48604;DHT22;32708;51.212;6.788;2023-05-02T05:10:35;12.30;99.90
48604;DHT22;32708;51.212;6.788;2023-05-02T05:13:01;12.10;99.90
48604;DHT22;32708;51.212;6.788;2023-05-02T05:15:29;12.10;99.90
48604;DHT22;32708;51.212;6.788;2023-05-02T05:17:58;12.10;99.90
48604;DHT22;32708;51.212;6.788;2023-05-02T05:20:24;12.00;99.90
48604;DHT22;32708;51.212;6.788;2023-05-02T05:22:54;11.90;99.90
48604;DHT22;32708;51.212;6.788;2023-05-02T05:25:21;12.00;99.90
48604;DHT22;32708;51.212;6.788;2023-05-02T05:27:49;12.00;99.90
48604;DHT22;32708;51.212;6.788;2023-05-02T05:30:17;12.00;99.90
48604;DHT22;32708;51.212;6.788;2023-05-02T05:32:43;12.00;99.90
48604;DHT22;32708;51.212;6.788;2023-05-02T05:35:10;12.00;99.90
48604;DHT22;32708;51.212;6.788;2023-05-02T05:37:37;12.00;99.90
48604;DHT22;32708;51.212;6.788;2023-05-02T05:40:07;11.90;99.90
48604;DHT22;32708;51.212;6.788;2023-05-02T05:42:35;11.80;99.90
48604;DHT22;32708;51.212;6.788;2023-05-02T05:45:07;11.70;99.90
48604;DHT22;32708;51.212;6.788;2023-05-02T05:47:34;11.70;99.90
48604;DHT22;32708;51.212;6.788;2023-05-02T05:50:00;11.70;99.90
48604;DHT22;32708;51.212;6.788;2023-05-02T05:52:30;11.70;99.90
48604;DHT22;32708;51.212;6.788;2023-05-02T05:54:59;11.60;99.90
48604;DHT22;32708;51.212;6.788;2023-05-02T05:57:27;11.60;99.90
48604;DHT22;32708;51.212;6.788;2023-05-02T05:59:55;11.50;99.90
48604;DHT22;32708;51.212;6.788;2023-05-02T06:02:21;11.50;99.90
48604;DHT22;32708;51.212;6.788;2023-05-02T06:04:47;11.50;99.90
48604;DHT22;32708;51.212;6.788;2023-05-02T06:07:16;11.60;99.90
48604;DHT22;32708;51.212;6.788;2023-05-02T06:09:46;11.70;99.90
48604;DHT22;32708;51.212;6.788;2023-05-02T06:12:13;11.80;99.90
48604;DHT22;32708;51.212;6.788;2023-05-02T06:14:41;11.80;99.90
48604;DHT22;32708;51.212;6.788;2023-05-02T06:17:08;11.80;99.90
48604;DHT22;32708;51.212;6.788;2023-05-02T06:19:37;11.70;99.90
48604;DHT22;32708;51.212;6.788;2023-05-02T06:22:03;11.60;99.90
48604;DHT22;32708;51.212;6.788;2023-05-02T06:24:29;11.80;99.90
48604;DHT22;32708;51.212;6.788;2023-05-02T06:26:56;11.70;99.90
48604;DHT22;32708;51.212;6.788;2023-05-02T06:29:22;11.70;99.90
48604;DHT22;32708;51.212;6.788;2023-05-02T06:31:48;11.80;99.90
48604;DHT22;32708;51.212;6.788;2023-05-02T06:34:15;11.60;99.90
48604;DHT22;32708;51.212;6.788;2023-05-02T06:36:41;11.70;99.90
48604;DHT22;32708;51.212;6.788;2023-05-02T06:39:07;11.70;99.90
48604;DHT22;32708;51.212;6.788;2023-05-02T06:41:34;11.70;99.90
48604;DHT22;32708;51.212;6.788;2023-05-02T06:44:00;11.80;99.90
48604;DHT22;32708;51.212;6.788;2023-05-02T06:46:28;11.80;99.90
48604;DHT22;32708;51.212;6.788;2023-05-02T06:48:55;11.80;99.90
48604;DHT22;32708;51.212;6.788;2023-05-02T06:51:21;11.80;99.90
48604;DHT22;32708;51.212;6.788;2023-05-02T06:53:48;11.90;99.90
48604;DHT22;32708;51.212;6.788;2023-05-02T06:56:14;12.00;99.90
48604;DHT22;32708;51.212;6.788;2023-05-02T06:58:40;12.00;99.90
48604;DHT22;32708;51.212;6.788;2023-05-02T07:01:06;12.00;99.90
48604;DHT22;32708;51.212;6.788;2023-05-02T07:03:33;12.00;99.90
48604;DHT22;32708;51.212;6.788;2023-05-02T07:05:59;12.00;98.30
48604;DHT22;32708;51.212;6.788;2023-05-02T07:08:31;12.10;99.90
48604;DHT22;32708;51.212;6.788;2023-05-02T07:10:58;12.10;89.20
48604;DHT22;32708;51.212;6.788;2023-05-02T07:13:24;12.10;96.00
48604;DHT22;32708;51.212;6.788;2023-05-02T07:15:50;12.30;88.00
48604;DHT22;32708;51.212;6.788;2023-05-02T07:18:17;12.20;91.10
48604;DHT22;32708;51.212;6.788;2023-05-02T07:20:43;12.20;93.20
48604;DHT22;32708;51.212;6.788;2023-05-02T07:23:10;12.20;95.30
48604;DHT22;32708;51.212;6.788;2023-05-02T07:25:36;12.20;94.70
48604;DHT22;32708;51.212;6.788;2023-05-02T07:28:02;12.30;90.00
48604;DHT22;32708;51.212;6.788;2023-05-02T07:30:28;12.30;77.50
48604;DHT22;32708;51.212;6.788;2023-05-02T07:32:55;12.50;67.70
48604;DHT22;32708;51.212;6.788;2023-05-02T07:35:21;12.60;50.10
48604;DHT22;32708;51.212;6.788;2023-05-02T07:37:47;12.80;35.70
48604;DHT22;32708;51.212;6.788;2023-05-02T07:40:13;12.80;3.30
48604;DHT22;32708;51.212;6.788;2023-05-02T07:42:40;13.00;1.00
48604;DHT22;32708;51.212;6.788;2023-05-02T07:45:07;13.00;1.00
48604;DHT22;32708;51.212;6.788;2023-05-02T07:47:33;13.10;1.00
48604;DHT22;32708;51.212;6.788;2023-05-02T07:49:59;13.10;1.00
48604;DHT22;32708;51.212;6.788;2023-05-02T07:52:25;13.10;1.00
48604;DHT22;32708;51.212;6.788;2023-05-02T07:54:52;12.80;1.00
48604;DHT22;32708;51.212;6.788;2023-05-02T07:57:18;12.70;1.00
48604;DHT22;32708;51.212;6.788;2023-05-02T07:59:44;12.40;1.00
48604;DHT22;32708;51.212;6.788;2023-05-02T08:02:10;12.40;1.00
48604;DHT22;32708;51.212;6.788;2023-05-02T08:04:39;12.30;1.00
48604;DHT22;32708;51.212;6.788;2023-05-02T08:07:06;12.10;99.90
48604;DHT22;32708;51.212;6.788;2023-05-02T08:09:32;11.90;99.90
48604;DHT22;32708;51.212;6.788;2023-05-02T08:11:58;11.80;99.90
48604;DHT22;32708;51.212;6.788;2023-05-02T08:14:24;11.60;99.90
48604;DHT22;32708;51.212;6.788;2023-05-02T08:16:50;11.60;99.90
48604;DHT22;32708;51.212;6.788;2023-05-02T08:19:17;11.50;99.90
48604;DHT22;32708;51.212;6.788;2023-05-02T08:21:43;11.50;99.90
48604;DHT22;32708;51.212;6.788;2023-05-02T08:24:09;11.60;99.90
48604;DHT22;32708;51.212;6.788;2023-05-02T08:26:35;11.50;99.90
48604;DHT22;32708;51.212;6.788;2023-05-02T08:29:01;11.60;96.90
48604;DHT22;32708;51.212;6.788;2023-05-02T08:31:29;11.60;78.60
48604;DHT22;32708;51.212;6.788;2023-05-02T08:33:55;11.70;99.90
48604;DHT22;32708;51.212;6.788;2023-05-02T08:36:21;11.60;1.00
48604;DHT22;32708;51.212;6.788;2023-05-02T08:38:48;11.60;99.90
48604;DHT22;32708;51.212;6.788;2023-05-02T08:41:16;11.80;99.90
48604;DHT22;32708;51.212;6.788;2023-05-02T08:43:44;11.80;99.90
48604;DHT22;32708;51.212;6.788;2023-05-02T08:46:15;11.80;99.90
48604;DHT22;32708;51.212;6.788;2023-05-02T08:48:44;11.50;99.90
48604;DHT22;32708;51.212;6.788;2023-05-02T08:51:15;11.40;99.90
48604;DHT22;32708;51.212;6.788;2023-05-02T08:53:43;11.70;1.00
48604;DHT22;32708;51.212;6.788;2023-05-02T08:56:11;11.80;39.10
48604;DHT22;32708;51.212;6.788;2023-05-02T08:58:39;12.00;87.60
48604;DHT22;32708;51.212;6.788;2023-05-02T09:01:15;12.10;99.90
48604;DHT22;32708;51.212;6.788;2023-05-02T09:03:45;12.40;99.90
48604;DHT22;32708;51.212;6.788;2023-05-02T09:06:18;12.70;1.00
48604;DHT22;32708;51.212;6.788;2023-05-02T09:08:49;12.80;1.00
48604;DHT22;32708;51.212;6.788;2023-05-02T09:11:18;12.90;99.90
48604;DHT22;32708;51.212;6.788;2023-05-02T09:16:18;12.80;99.90
48604;DHT22;32708;51.212;6.788;2023-05-02T09:18:53;12.90;99.90
48604;DHT22;32708;51.212;6.788;2023-05-02T09:21:23;13.00;98.10
48604;DHT22;32708;51.212;6.788;2023-05-02T09:23:53;13.20;22.10
48604;DHT22;32708;51.212;6.788;2023-05-02T09:26:27;13.10;99.90
48604;DHT22;32708;51.212;6.788;2023-05-02T09:28:59;13.00;1.00
48604;DHT22;32708;51.212;6.788;2023-05-02T09:31:29;12.80;99.90
48604;DHT22;32708;51.212;6.788;2023-05-02T09:34:17;12.90;99.90
48604;DHT22;32708;51.212;6.788;2023-05-02T09:36:46;13.00;91.40
48604;DHT22;32708;51.212;6.788;2023-05-02T09:39:18;13.20;1.80
48604;DHT22;32708;51.212;6.788;2023-05-02T09:41:47;13.50;1.00
48604;DHT22;32708;51.212;6.788;2023-05-02T09:44:17;13.60;99.90
48604;DHT22;32708;51.212;6.788;2023-05-02T09:46:50;13.60;99.90
48604;DHT22;32708;51.212;6.788;2023-05-02T09:49:18;13.60;99.90
48604;DHT22;32708;51.212;6.788;2023-05-02T09:52:15;13.40;1.00
48604;DHT22;32708;51.212;6.788;2023-05-02T09:54:50;13.80;99.90
48604;DHT22;32708;51.212;6.788;2023-05-02T09:57:18;13.90;99.90
48604;DHT22;32708;51.212;6.788;2023-05-02T09:59:56;13.80;99.90
48604;DHT22;32708;51.212;6.788;2023-05-02T10:02:24;13.90;99.90
48604;DHT22;32708;51.212;6.788;2023-05-02T10:04:56;14.20;99.90
48604;DHT22;32708;51.212;6.788;2023-05-02T10:07:25;14.10;99.90
48604;DHT22;32708;51.212;6.788;2023-05-02T10:09:53;13.90;99.90
48604;DHT22;32708;51.212;6.788;2023-05-02T10:12:27;14.00;99.90
48604;DHT22;32708;51.212;6.788;2023-05-02T10:15:03;14.30;99.90
48604;DHT22;32708;51.212;6.788;2023-05-02T10:17:39;14.40;99.90
48604;DHT22;32708;51.212;6.788;2023-05-02T10:20:10;14.30;99.90
48604;DHT22;32708;51.212;6.788;2023-05-02T10:22:46;14.20;99.90
48604;DHT22;32708;51.212;6.788;2023-05-02T10:25:14;13.90;99.90
48604;DHT22;32708;51.212;6.788;2023-05-02T10:27:41;13.70;99.90
48604;DHT22;32708;51.212;6.788;2023-05-02T10:30:08;14.20;99.90
48604;DHT22;32708;51.212;6.788;2023-05-02T10:32:37;14.20;99.90
48604;DHT22;32708;51.212;6.788;2023-05-02T10:35:05;14.40;99.90
48604;DHT22;32708;51.212;6.788;2023-05-02T10:37:35;14.90;90.00
48604;DHT22;32708;51.212;6.788;2023-05-02T10:40:08;15.40;64.10
48604;DHT22;32708;51.212;6.788;2023-05-02T10:42:56;15.90;55.60
48604;DHT22;32708;51.212;6.788;2023-05-02T10:45:35;16.10;27.40
48604;DHT22;32708;51.212;6.788;2023-05-02T10:48:20;15.80;20.60
48604;DHT22;32708;51.212;6.788;2023-05-02T10:50:50;15.50;23.20
48604;DHT22;32708;51.212;6.788;2023-05-02T10:53:37;15.20;28.00
48604;DHT22;32708;51.212;6.788;2023-05-02T10:56:19;14.90;29.20
48604;DHT22;32708;51.212;6.788;2023-05-02T10:58:51;14.50;34.40
48604;DHT22;32708;51.212;6.788;2023-05-02T11:04:05;14.60;51.70
48604;DHT22;32708;51.212;6.788;2023-05-02T11:07:20;14.20;63.50
48604;DHT22;32708;51.212;6.788;2023-05-02T11:11:48;13.50;95.70
48604;DHT22;32708;51.212;6.788;2023-05-02T11:19:27;13.90;53.30
48604;DHT22;32708;51.212;6.788;2023-05-02T11:24:49;14.80;33.70
48604;DHT22;32708;51.212;6.788;2023-05-02T11:29:58;15.00;20.10
48604;DHT22;32708;51.212;6.788;2023-05-02T11:35:18;15.40;17.50
48604;DHT22;32708;51.212;6.788;2023-05-02T11:37:56;16.20;11.80
48604;DHT22;32708;51.212;6.788;2023-05-02T11:40:25;16.10;9.20
48604;DHT22;32708;51.212;6.788;2023-05-02T11:42:53;16.50;6.90
48604;DHT22;32708;51.212;6.788;2023-05-02T11:45:19;16.50;3.10
48604;DHT22;32708;51.212;6.788;2023-05-02T11:47:47;16.60;2.00
48604;DHT22;32708;51.212;6.788;2023-05-02T11:50:14;16.30;1.00
48604;DHT22;32708;51.212;6.788;2023-05-02T11:52:44;15.90;1.00
48604;DHT22;32708;51.212;6.788;2023-05-02T11:55:12;15.70;1.00
48604;DHT22;32708;51.212;6.788;2023-05-02T11:57:40;15.70;1.40
48604;DHT22;32708;51.212;6.788;2023-05-02T12:00:08;15.80;1.10
48604;DHT22;32708;51.212;6.788;2023-05-02T12:02:43;15.50;2.00
48604;DHT22;32708;51.212;6.788;2023-05-02T12:05:13;14.90;11.30
48604;DHT22;32708;51.212;6.788;2023-05-02T12:07:46;14.40;16.70
48604;DHT22;32708;51.212;6.788;2023-05-02T12:10:15;14.40;24.50
48604;DHT22;32708;51.212;6.788;2023-05-02T12:12:43;14.80;17.30
48604;DHT22;32708;51.212;6.788;2023-05-02T12:15:11;14.70;15.30
48604;DHT22;32708;51.212;6.788;2023-05-02T12:17:40;14.90;9.20
48604;DHT22;32708;51.212;6.788;2023-05-02T12:20:14;15.00;8.00
48604;DHT22;32708;51.212;6.788;2023-05-02T12:22:43;14.90;6.20
48604;DHT22;32708;51.212;6.788;2023-05-02T12:25:10;14.40;9.20
48604;DHT22;32708;51.212;6.788;2023-05-02T12:27:36;14.60;9.80
48604;DHT22;32708;51.212;6.788;2023-05-02T12:30:03;14.50;6.70
48604;DHT22;32708;51.212;6.788;2023-05-02T12:32:32;14.60;4.90
48604;DHT22;32708;51.212;6.788;2023-05-02T12:35:02;14.60;6.40
48604;DHT22;32708;51.212;6.788;2023-05-02T12:37:30;14.50;3.90
48604;DHT22;32708;51.212;6.788;2023-05-02T12:39:56;14.50;2.30
48604;DHT22;32708;51.212;6.788;2023-05-02T12:42:24;14.80;2.10
48604;DHT22;32708;51.212;6.788;2023-05-02T12:44:52;14.90;1.00
48604;DHT22;32708;51.212;6.788;2023-05-02T12:47:19;15.40;1.00
48604;DHT22;32708;51.212;6.788;2023-05-02T12:49:55;15.80;1.00
48604;DHT22;32708;51.212;6.788;2023-05-02T12:55:21;15.10;1.00
48604;DHT22;32708;51.212;6.788;2023-05-02T12:57:50;15.00;1.00
48604;DHT22;32708;51.212;6.788;2023-05-02T13:00:30;15.30;1.00
48604;DHT22;32708;51.212;6.788;2023-05-02T13:02:57;15.30;1.00
48604;DHT22;32708;51.212;6.788;2023-05-02T13:05:23;15.60;1.00
48604;DHT22;32708;51.212;6.788;2023-05-02T13:07:50;15.50;1.00
48604;DHT22;32708;51.212;6.788;2023-05-02T13:10:17;15.70;1.00
48604;DHT22;32708;51.212;6.788;2023-05-02T13:12:44;15.20;1.00
48604;DHT22;32708;51.212;6.788;2023-05-02T13:15:12;15.30;1.00
48604;DHT22;32708;51.212;6.788;2023-05-02T13:17:39;15.60;1.00
48604;DHT22;32708;51.212;6.788;2023-05-02T13:20:06;16.00;1.00
48604;DHT22;32708;51.212;6.788;2023-05-02T13:22:34;16.30;1.00
48604;DHT22;32708;51.212;6.788;2023-05-02T13:25:02;16.70;1.00
48604;DHT22;32708;51.212;6.788;2023-05-02T13:27:32;16.70;1.00
48604;DHT22;32708;51.212;6.788;2023-05-02T13:29:59;16.70;1.00
48604;DHT22;32708;51.212;6.788;2023-05-02T13:32:29;17.00;1.00
48604;DHT22;32708;51.212;6.788;2023-05-02T13:34:55;17.10;1.00
48604;DHT22;32708;51.212;6.788;2023-05-02T13:37:21;16.80;1.00
48604;DHT22;32708;51.212;6.788;2023-05-02T13:39:48;16.40;1.00
48604;DHT22;32708;51.212;6.788;2023-05-02T13:42:14;16.00;1.00
48604;DHT22;32708;51.212;6.788;2023-05-02T13:44:40;15.70;1.00
48604;DHT22;32708;51.212;6.788;2023-05-02T13:47:06;15.60;1.00
48604;DHT22;32708;51.212;6.788;2023-05-02T13:49:32;15.30;1.00
48604;DHT22;32708;51.212;6.788;2023-05-02T13:51:58;14.80;1.00
48604;DHT22;32708;51.212;6.788;2023-05-02T13:54:24;15.00;1.00
48604;DHT22;32708;51.212;6.788;2023-05-02T13:56:50;15.10;1.00
48604;DHT22;32708;51.212;6.788;2023-05-02T13:59:16;15.30;1.00
48604;DHT22;32708;51.212;6.788;2023-05-02T14:01:43;15.50;1.00
48604;DHT22;32708;51.212;6.788;2023-05-02T14:04:09;15.20;1.00
48604;DHT22;32708;51.212;6.788;2023-05-02T14:06:35;15.30;1.00
48604;DHT22;32708;51.212;6.788;2023-05-02T14:09:02;14.90;1.00
48604;DHT22;32708;51.212;6.788;2023-05-02T14:11:30;14.90;1.00
48604;DHT22;32708;51.212;6.788;2023-05-02T14:13:56;15.10;1.00
48604;DHT22;32708;51.212;6.788;2023-05-02T14:16:24;15.10;1.00
48604;DHT22;32708;51.212;6.788;2023-05-02T14:18:50;15.30;1.00
48604;DHT22;32708;51.212;6.788;2023-05-02T14:21:16;15.20;1.00
48604;DHT22;32708;51.212;6.788;2023-05-02T14:23:43;15.20;1.00
48604;DHT22;32708;51.212;6.788;2023-05-02T14:26:10;15.30;1.00
48604;DHT22;32708;51.212;6.788;2023-05-02T14:28:37;15.40;1.00
48604;DHT22;32708;51.212;6.788;2023-05-02T14:31:04;15.30;1.00
48604;DHT22;32708;51.212;6.788;2023-05-02T14:33:30;15.10;1.00
48604;DHT22;32708;51.212;6.788;2023-05-02T14:35:56;15.30;1.00
48604;DHT22;32708;51.212;6.788;2023-05-02T14:38:22;15.30;1.00
48604;DHT22;32708;51.212;6.788;2023-05-02T14:40:48;15.10;1.00
48604;DHT22;32708;51.212;6.788;2023-05-02T14:43:14;15.00;1.00
48604;DHT22;32708;51.212;6.788;2023-05-02T14:45:40;15.20;1.00
48604;DHT22;32708;51.212;6.788;2023-05-02T14:48:06;14.90;1.00
48604;DHT22;32708;51.212;6.788;2023-05-02T14:50:35;15.10;1.00
48604;DHT22;32708;51.212;6.788;2023-05-02T14:53:01;15.00;1.00
48604;DHT22;32708;51.212;6.788;2023-05-02T14:55:27;15.30;1.00
48604;DHT22;32708;51.212;6.788;2023-05-02T14:57:54;15.40;1.00
48604;DHT22;32708;51.212;6.788;2023-05-02T15:00:23;15.40;1.00
48604;DHT22;32708;51.212;6.788;2023-05-02T15:02:49;15.30;1.00
48604;DHT22;32708;51.212;6.788;2023-05-02T15:05:16;15.10;1.00
48604;DHT22;32708;51.212;6.788;2023-05-02T15:07:42;15.10;1.00
48604;DHT22;32708;51.212;6.788;2023-05-02T15:10:08;15.00;1.00
48604;DHT22;32708;51.212;6.788;2023-05-02T15:12:35;15.00;1.00
48604;DHT22;32708;51.212;6.788;2023-05-02T15:15:01;15.00;1.00
48604;DHT22;32708;51.212;6.788;2023-05-02T15:17:28;14.90;1.00
48604;DHT22;32708;51.212;6.788;2023-05-02T15:19:54;14.80;1.00
48604;DHT22;32708;51.212;6.788;2023-05-02T15:22:20;14.90;1.00
48604;DHT22;32708;51.212;6.788;2023-05-02T15:24:48;14.90;1.00
48604;DHT22;32708;51.212;6.788;2023-05-02T15:27:14;14.70;1.00
48604;DHT22;32708;51.212;6.788;2023-05-02T15:29:41;14.70;1.00
48604;DHT22;32708;51.212;6.788;2023-05-02T15:32:07;14.90;1.00
48604;DHT22;32708;51.212;6.788;2023-05-02T15:34:33;14.80;1.00
48604;DHT22;32708;51.212;6.788;2023-05-02T15:36:59;15.10;1.00
48604;DHT22;32708;51.212;6.788;2023-05-02T15:39:28;15.10;1.00
48604;DHT22;32708;51.212;6.788;2023-05-02T15:41:54;15.00;1.00
48604;DHT22;32708;51.212;6.788;2023-05-02T15:44:21;15.00;1.00
48604;DHT22;32708;51.212;6.788;2023-05-02T15:46:47;14.70;1.00
48604;DHT22;32708;51.212;6.788;2023-05-02T15:49:14;14.80;1.00
48604;DHT22;32708;51.212;6.788;2023-05-02T15:51:40;15.00;1.00
48604;DHT22;32708;51.212;6.788;2023-05-02T15:54:07;14.90;1.00
48604;DHT22;32708;51.212;6.788;2023-05-02T15:56:33;14.90;1.00
48604;DHT22;32708;51.212;6.788;2023-05-02T15:58:59;14.90;1.00
48604;DHT22;32708;51.212;6.788;2023-05-02T16:01:25;15.10;1.00
48604;DHT22;32708;51.212;6.788;2023-05-02T16:03:51;15.00;1.00
48604;DHT22;32708;51.212;6.788;2023-05-02T16:06:17;14.90;1.00
48604;DHT22;32708;51.212;6.788;2023-05-02T16:08:44;14.90;1.00
48604;DHT22;32708;51.212;6.788;2023-05-02T16:11:10;15.30;1.00
48604;DHT22;32708;51.212;6.788;2023-05-02T16:13:37;15.50;1.00
48604;DHT22;32708;51.212;6.788;2023-05-02T16:16:03;15.60;1.00
48604;DHT22;32708;51.212;6.788;2023-05-02T16:18:29;15.80;1.00
48604;DHT22;32708;51.212;6.788;2023-05-02T16:20:56;15.40;1.00
48604;DHT22;32708;51.212;6.788;2023-05-02T16:23:24;15.40;1.00
48604;DHT22;32708;51.212;6.788;2023-05-02T16:26:00;15.00;1.00